createdAt,value
2019-06-20T00:01:21.025Z,66.81
2019-06-20T00:03:51.167Z,66.55
2019-06-20T00:06:21.306Z,66.12
2019-06-20T00:08:51.429Z,66.01
2019-06-20T00:11:21.671Z,65.88
2019-06-20T00:13:52.851Z,66.11
2019-06-20T00:16:22.969Z,66.40
2019-06-20T00:18:53.097Z,66.22
2019-06-20T00:21:23.213Z,67.23
2019-06-20T00:23:53.321Z,67.25
2019-06-20T00:26:24.275Z,67.89
2019-06-20T00:28:54.479Z,67.88
2019-06-20T00:31:24.605Z,67.38
2019-06-20T00:33:54.808Z,66.96
2019-06-20T00:36:24.952Z,67.21
2019-06-20T00:38:55.072Z,66.67
2019-06-20T00:41:25.201Z,66.83
2019-06-20T00:43:55.327Z,67.19
2019-06-20T00:46:25.521Z,67.05
2019-06-20T00:48:55.649Z,66.65
2019-06-20T00:51:25.898Z,66.58
2019-06-20T00:53:56.019Z,66.42
2019-06-20T00:56:26.190Z,67.97
2019-06-20T00:58:56.313Z,68.63
2019-06-20T01:01:26.448Z,68.23
2019-06-20T01:03:56.673Z,68.51
2019-06-20T01:06:26.820Z,67.62
2019-06-20T01:08:56.952Z,67.68
2019-06-20T01:11:27.089Z,68.69
2019-06-20T01:13:57.207Z,68.60
2019-06-20T01:16:28.477Z,69.59
2019-06-20T01:18:58.607Z,69.01
2019-06-20T01:21:28.762Z,69.16
2019-06-20T01:23:58.892Z,69.46
2019-06-20T01:26:29.053Z,69.61
2019-06-20T01:28:59.196Z,69.18
2019-06-20T01:31:29.327Z,70.12
2019-06-20T01:33:59.451Z,70.70
2019-06-20T01:36:29.716Z,70.79
2019-06-20T01:38:59.845Z,69.70
2019-06-20T01:41:30.014Z,70.05
2019-06-20T01:44:00.137Z,69.76
2019-06-20T01:46:30.364Z,69.80
2019-06-20T01:49:00.501Z,69.66
2019-06-20T01:51:30.697Z,70.58
2019-06-20T01:54:00.804Z,69.70
2019-06-20T01:56:30.929Z,69.06
2019-06-20T01:59:01.430Z,68.33
2019-06-20T02:01:31.578Z,67.88
2019-06-20T02:04:01.773Z,67.98
2019-06-20T02:06:31.907Z,67.44
2019-06-20T02:09:02.030Z,68.88
2019-06-20T02:11:33.262Z,67.66
2019-06-20T02:14:07.307Z,68.81
2019-06-20T02:16:35.322Z,68.73
2019-06-20T02:19:07.080Z,68.39
2019-06-20T02:21:37.216Z,68.85
2019-06-20T02:24:07.351Z,67.85
2019-06-20T02:26:37.495Z,67.98
2019-06-20T02:29:07.616Z,68.63
2019-06-20T02:31:37.750Z,68.82
2019-06-20T02:34:07.882Z,69.30
2019-06-20T02:36:38.028Z,69.32
2019-06-20T02:39:08.561Z,69.37
2019-06-20T02:41:38.722Z,69.84
2019-06-20T02:44:28.551Z,69.01
2019-06-20T02:46:40.732Z,67.66
2019-06-20T02:49:10.871Z,67.09
2019-06-20T02:51:41.620Z,67.14
2019-06-20T02:54:11.742Z,66.15
2019-06-20T02:56:42.998Z,65.20
2019-06-20T02:59:13.107Z,63.97
2019-06-20T03:01:43.228Z,62.16
2019-06-20T03:04:13.348Z,60.94
2019-06-20T03:06:43.523Z,60.51
2019-06-20T03:09:13.632Z,60.33
2019-06-20T03:11:43.768Z,60.33
2019-06-20T03:14:13.902Z,60.58
2019-06-20T03:16:44.039Z,61.00
2019-06-20T03:19:14.156Z,61.14
2019-06-20T03:21:44.293Z,61.92
2019-06-20T03:24:14.486Z,61.78
2019-06-20T03:26:44.687Z,62.16
2019-06-20T03:29:14.809Z,62.31
2019-06-20T03:31:44.950Z,62.73
2019-06-20T03:34:15.072Z,63.54
2019-06-20T03:36:45.189Z,62.97
2019-06-20T03:39:17.383Z,62.86
2019-06-20T03:41:47.513Z,62.65
2019-06-20T03:44:18.713Z,63.13
2019-06-20T03:46:48.852Z,63.08
2019-06-20T03:49:18.969Z,63.47
2019-06-20T03:51:51.662Z,63.18
2019-06-20T03:54:21.024Z,63.44
2019-06-20T03:56:51.196Z,63.51
2019-06-20T03:59:21.307Z,63.03
2019-06-20T04:01:51.460Z,62.89
2019-06-20T04:04:21.569Z,62.57
2019-06-20T04:06:51.710Z,62.60
2019-06-20T04:09:21.828Z,62.28
2019-06-20T04:11:52.123Z,61.67
2019-06-20T04:14:22.243Z,61.32
2019-06-20T04:16:52.395Z,61.78
2019-06-20T04:19:22.527Z,62.11
2019-06-20T04:21:52.695Z,61.93
2019-06-20T04:24:22.810Z,61.84
2019-06-20T04:26:52.958Z,61.83
2019-06-20T04:29:23.076Z,62.29
2019-06-20T04:31:53.239Z,62.26
2019-06-20T04:34:23.369Z,61.85
2019-06-20T04:36:53.519Z,61.77
2019-06-20T04:39:23.709Z,62.11
2019-06-20T04:41:53.848Z,62.28
2019-06-20T04:44:23.998Z,61.98
2019-06-20T04:46:59.900Z,62.43
2019-06-20T04:49:30.024Z,62.15
2019-06-20T04:52:00.354Z,62.07
2019-06-20T04:54:30.482Z,61.73
2019-06-20T04:57:00.639Z,61.64
2019-06-20T04:59:31.952Z,61.42
2019-06-20T05:02:02.668Z,60.36
2019-06-20T05:04:32.887Z,61.51
2019-06-20T05:07:09.949Z,61.88
2019-06-20T05:09:40.087Z,61.87
2019-06-20T05:12:10.205Z,62.35
2019-06-20T05:14:40.381Z,62.32
2019-06-20T05:17:11.349Z,61.67
2019-06-20T05:19:41.471Z,61.71
2019-06-20T05:22:12.679Z,62.16
2019-06-20T05:24:42.819Z,61.38
2019-06-20T05:27:12.951Z,61.57
2019-06-20T05:29:43.091Z,60.64
2019-06-20T05:32:13.221Z,60.92
2019-06-20T05:34:43.355Z,60.16
2019-06-20T05:37:13.520Z,59.80
2019-06-20T05:39:43.637Z,59.56
2019-06-20T05:42:13.789Z,58.73
2019-06-20T05:44:43.920Z,58.56
2019-06-20T05:47:14.227Z,58.08
2019-06-20T05:49:44.369Z,58.17
2019-06-20T05:52:14.567Z,57.65
2019-06-20T05:54:44.676Z,57.44
2019-06-20T05:57:14.857Z,57.05
2019-06-20T05:59:45.047Z,55.95
2019-06-20T06:02:15.160Z,56.56
2019-06-20T06:04:45.287Z,55.77
2019-06-20T06:07:15.452Z,53.93
2019-06-20T06:09:45.766Z,53.92
2019-06-20T06:12:15.905Z,53.80
2019-06-20T06:14:46.324Z,54.38
2019-06-20T06:17:16.484Z,54.09
2019-06-20T06:19:46.615Z,53.76
2019-06-20T06:22:16.762Z,54.33
2019-06-20T06:24:46.903Z,54.19
2019-06-20T06:27:17.057Z,53.61
2019-06-20T06:29:47.197Z,54.13
2019-06-20T06:32:20.063Z,53.17
2019-06-20T06:34:49.194Z,53.09
2019-06-20T06:37:19.329Z,53.21
2019-06-20T06:39:50.199Z,53.52
2019-06-20T06:42:22.130Z,53.52
2019-06-20T06:44:52.280Z,53.10
2019-06-20T06:47:22.431Z,53.17
2019-06-20T06:49:52.579Z,53.30
2019-06-20T06:52:22.710Z,53.32
2019-06-20T06:54:52.943Z,53.32
2019-06-20T06:57:23.202Z,53.61
2019-06-20T06:59:53.357Z,52.89
2019-06-20T07:02:23.502Z,52.55
2019-06-20T07:04:53.683Z,53.23
2019-06-20T07:07:23.861Z,53.04
2019-06-20T07:09:55.086Z,53.33
2019-06-20T07:12:25.235Z,53.67
2019-06-20T07:14:56.409Z,53.80
2019-06-20T07:17:26.580Z,54.33
2019-06-20T07:19:56.739Z,55.23
2019-06-20T07:22:26.874Z,55.16
2019-06-20T07:24:57.020Z,55.05
2019-06-20T07:27:27.168Z,54.83
2019-06-20T07:29:57.320Z,55.45
2019-06-20T07:32:27.487Z,54.31
2019-06-20T07:34:57.607Z,54.28
2019-06-20T07:37:27.761Z,53.45
2019-06-20T07:39:57.987Z,52.22
2019-06-20T07:42:28.219Z,51.20
2019-06-20T07:44:58.311Z,51.20
2019-06-20T07:47:28.495Z,51.59
2019-06-20T07:49:59.834Z,51.50
2019-06-20T07:52:30.024Z,52.18
2019-06-20T07:55:00.191Z,51.46
2019-06-20T07:57:30.349Z,50.51
2019-06-20T08:00:00.614Z,50.00
2019-06-20T08:02:31.924Z,50.79
2019-06-20T08:05:02.054Z,50.41
2019-06-20T08:07:32.176Z,50.69
2019-06-20T08:10:02.608Z,51.55
2019-06-20T08:12:34.236Z,50.36
2019-06-20T08:15:15.100Z,51.16
2019-06-20T08:17:37.897Z,50.91
2019-06-20T08:20:08.949Z,50.41
2019-06-20T08:22:39.276Z,49.39
2019-06-20T08:25:10.089Z,49.17
2019-06-20T08:27:53.101Z,49.53
2019-06-20T08:30:29.117Z,49.46
2019-06-20T08:33:01.895Z,49.02
2019-06-20T08:35:32.720Z,48.10
2019-06-20T08:38:03.767Z,47.88
2019-06-20T08:40:40.027Z,47.32
2019-06-20T08:43:10.544Z,47.34
2019-06-20T08:45:41.940Z,46.95
2019-06-20T08:48:12.083Z,46.85
2019-06-20T08:50:42.635Z,47.40
2019-06-20T08:53:12.854Z,46.90
2019-06-20T08:55:42.991Z,46.93
2019-06-20T08:58:13.192Z,46.80
2019-06-20T09:00:43.649Z,47.27
2019-06-20T09:03:14.349Z,47.07
2019-06-20T09:05:44.622Z,47.17
2019-06-20T09:08:14.856Z,47.07
2019-06-20T09:10:44.999Z,47.59
2019-06-20T09:13:15.150Z,47.11
2019-06-20T09:15:45.271Z,46.89
2019-06-20T09:18:15.673Z,47.61
2019-06-20T09:20:46.255Z,46.77
2019-06-20T09:23:16.548Z,46.91
2019-06-20T09:25:46.686Z,46.22
2019-06-20T09:28:16.841Z,45.69
2019-06-20T09:30:47.012Z,46.20
2019-06-20T09:33:17.161Z,46.32
2019-06-20T09:35:47.472Z,45.84
2019-06-20T09:38:17.695Z,46.64
2019-06-20T09:40:47.820Z,46.08
2019-06-20T09:43:27.121Z,45.06
2019-06-20T09:45:51.360Z,45.90
2019-06-20T09:48:22.402Z,45.88
2019-06-20T09:50:54.593Z,45.25
2019-06-20T09:53:25.056Z,45.81
2019-06-20T09:55:55.700Z,45.41
2019-06-20T09:58:26.183Z,46.35
2019-06-20T10:00:57.456Z,45.53
2019-06-20T10:03:27.751Z,45.65
2019-06-20T10:05:57.882Z,44.76
2019-06-20T10:08:28.006Z,45.50
2019-06-20T10:10:59.211Z,46.34
2019-06-20T10:13:32.547Z,46.26
2019-06-20T10:16:01.203Z,45.49
2019-06-20T10:18:31.448Z,45.68
2019-06-20T10:21:01.612Z,46.23
2019-06-20T10:23:32.837Z,46.30
2019-06-20T10:26:02.954Z,45.83
2019-06-20T10:28:33.108Z,44.94
2019-06-20T10:31:03.242Z,46.21
2019-06-20T10:33:33.416Z,46.02
2019-06-20T10:36:04.636Z,45.82
2019-06-20T10:38:34.793Z,46.47
2019-06-20T10:41:05.031Z,45.58
2019-06-20T10:43:35.168Z,45.36
2019-06-20T10:46:05.614Z,46.05
2019-06-20T10:48:35.948Z,46.19
2019-06-20T10:51:24.111Z,45.71
2019-06-20T10:53:54.377Z,45.98
2019-06-20T10:56:24.504Z,45.83
2019-06-20T10:58:54.648Z,45.92
2019-06-20T11:01:24.798Z,46.54
2019-06-20T11:03:54.946Z,47.02
2019-06-20T11:06:25.068Z,47.51
2019-06-20T11:08:55.218Z,48.08
2019-06-20T11:11:25.342Z,48.54
2019-06-20T11:13:55.481Z,47.84
2019-06-20T11:16:25.690Z,47.28
2019-06-20T11:18:55.846Z,47.56
2019-06-20T11:21:26.035Z,47.79
2019-06-20T11:23:56.189Z,47.69
2019-06-20T11:26:26.317Z,47.90
2019-06-20T11:28:56.448Z,48.45
2019-06-20T11:31:26.578Z,49.25
2019-06-20T11:33:56.728Z,50.33
2019-06-20T11:36:27.688Z,50.54
2019-06-20T11:38:57.839Z,51.14
2019-06-20T11:45:27.837Z,52.35
2019-06-20T11:47:57.994Z,54.45
2019-06-20T11:50:28.264Z,56.49
2019-06-20T11:52:59.393Z,56.67
2019-06-20T11:55:29.537Z,56.94
2019-06-20T11:57:59.677Z,57.37
2019-06-20T12:00:30.093Z,57.37
2019-06-20T12:03:00.247Z,58.00
2019-06-20T12:05:30.426Z,58.91
2019-06-20T12:08:00.576Z,60.68
2019-06-20T12:10:30.741Z,62.13
2019-06-20T12:13:00.911Z,61.86
2019-06-20T12:15:31.054Z,62.17
2019-06-20T12:18:01.570Z,62.68
2019-06-20T12:20:31.748Z,62.64
2019-06-20T12:23:01.867Z,62.61
2019-06-20T12:25:32.017Z,62.25
2019-06-20T12:28:02.187Z,61.64
2019-06-20T12:30:32.345Z,63.48
2019-06-20T12:33:02.456Z,65.45
2019-06-20T12:35:32.593Z,65.42
2019-06-20T12:38:02.729Z,65.77
2019-06-20T12:40:32.873Z,67.10
2019-06-20T12:43:03.063Z,67.66
2019-06-20T12:45:34.281Z,68.06
2019-06-20T12:48:04.476Z,67.92
2019-06-20T12:50:34.608Z,68.48
2019-06-20T12:53:04.747Z,68.15
2019-06-20T12:55:34.998Z,67.60
2019-06-20T12:58:05.133Z,67.37
2019-06-20T13:00:35.479Z,67.19
2019-06-20T13:03:07.737Z,66.46
2019-06-20T13:05:38.465Z,66.97
2019-06-20T13:08:12.813Z,67.29
2019-06-20T13:10:41.853Z,68.18
2019-06-20T13:13:12.002Z,68.39
2019-06-20T13:15:42.523Z,68.04
2019-06-20T13:18:12.720Z,67.82
2019-06-20T13:20:44.171Z,67.59
2019-06-20T13:23:14.460Z,67.32
2019-06-20T13:25:44.651Z,68.24
2019-06-20T13:28:14.788Z,68.07
2019-06-20T13:30:48.907Z,68.08
2019-06-20T13:33:16.955Z,68.23
2019-06-20T13:35:48.638Z,68.09
2019-06-20T13:38:18.932Z,67.83
2019-06-20T13:40:49.378Z,67.79
2019-06-20T13:43:20.699Z,68.03
2019-06-20T13:45:52.162Z,68.67
2019-06-20T13:48:22.955Z,68.63
2019-06-20T13:50:53.075Z,68.74
2019-06-20T13:53:23.203Z,69.19
2019-06-20T13:55:53.376Z,69.65
2019-06-20T13:58:24.465Z,69.92
2019-06-20T14:00:55.884Z,70.50
2019-06-20T14:03:26.026Z,69.46
2019-06-20T14:05:57.354Z,70.76
2019-06-20T14:08:27.491Z,70.90
2019-06-20T14:10:57.627Z,69.82
2019-06-20T14:13:27.785Z,69.26
2019-06-20T14:15:58.034Z,69.14
2019-06-20T14:18:28.182Z,68.51
2019-06-20T14:20:58.331Z,68.18
2019-06-20T14:23:28.451Z,68.08
2019-06-20T14:25:58.582Z,67.63
2019-06-20T14:28:28.708Z,67.53
2019-06-20T14:30:58.855Z,66.77
2019-06-20T14:33:31.800Z,65.91
2019-06-20T14:36:00.853Z,65.03
2019-06-20T14:38:31.038Z,64.85
2019-06-20T14:41:01.303Z,63.34
2019-06-20T14:43:31.531Z,61.67
2019-06-20T14:46:01.693Z,61.31
2019-06-20T14:48:31.800Z,60.94
2019-06-20T14:51:01.980Z,61.29
2019-06-20T14:53:33.154Z,60.66
2019-06-20T14:56:03.364Z,60.14
2019-06-20T14:58:33.505Z,59.59
2019-06-20T15:01:03.651Z,59.68
2019-06-20T15:03:33.777Z,59.91
2019-06-20T15:06:03.942Z,59.62
2019-06-20T15:08:34.066Z,59.58
2019-06-20T15:11:04.211Z,60.10
2019-06-20T15:13:34.335Z,59.31
2019-06-20T15:16:04.576Z,59.54
2019-06-20T15:18:34.719Z,59.25
2019-06-20T15:21:04.868Z,59.35
2019-06-20T15:23:35.198Z,59.62
2019-06-20T15:26:05.337Z,59.54
2019-06-20T15:28:35.472Z,60.21
2019-06-20T15:31:05.629Z,59.89
2019-06-20T15:33:35.771Z,59.85
2019-06-20T15:36:05.902Z,60.93
2019-06-20T15:38:36.063Z,61.89
2019-06-20T15:41:06.186Z,62.31
2019-06-20T15:43:36.320Z,62.69
2019-06-20T15:46:06.459Z,63.27
2019-06-20T15:48:36.592Z,63.72
2019-06-20T15:51:06.745Z,62.70
2019-06-20T15:53:36.845Z,62.91
2019-06-20T15:56:06.987Z,63.72
2019-06-20T15:58:37.129Z,63.76
2019-06-20T16:01:07.255Z,63.84
2019-06-20T16:03:37.387Z,63.80
2019-06-20T16:06:07.533Z,63.49
2019-06-20T16:08:37.663Z,63.73
2019-06-20T16:11:07.850Z,63.78
2019-06-20T16:13:37.983Z,63.51
2019-06-20T16:16:08.218Z,63.46
2019-06-20T16:18:38.351Z,62.72
2019-06-20T16:21:08.490Z,62.21
2019-06-20T16:23:38.628Z,62.34
2019-06-20T16:26:08.812Z,63.23
2019-06-20T16:28:38.944Z,63.34
2019-06-20T16:31:25.514Z,63.26
2019-06-20T16:33:41.004Z,64.45
2019-06-20T16:36:13.106Z,64.65
2019-06-20T16:38:42.983Z,64.93
2019-06-20T16:41:13.129Z,64.88
2019-06-20T16:43:43.273Z,64.28
2019-06-20T16:46:13.419Z,64.04
2019-06-20T16:48:43.548Z,63.95
2019-06-20T16:51:13.701Z,63.91
2019-06-20T16:53:43.838Z,64.03
2019-06-20T16:56:14.002Z,64.63
2019-06-20T16:58:44.149Z,65.30
2019-06-20T17:01:14.317Z,65.29
2019-06-20T17:03:44.507Z,64.85
2019-06-20T17:06:14.644Z,64.83
2019-06-20T17:08:44.775Z,65.19
2019-06-20T17:11:14.907Z,64.72
2019-06-20T17:13:45.028Z,64.76
2019-06-20T17:16:15.163Z,65.03
2019-06-20T17:18:45.305Z,66.08
2019-06-20T17:21:15.437Z,65.24
2019-06-20T17:23:45.605Z,64.23
2019-06-20T17:26:15.738Z,64.87
2019-06-20T17:28:45.864Z,64.56
2019-06-20T17:31:16.132Z,64.54
2019-06-20T17:33:57.043Z,66.15
2019-06-20T17:36:18.906Z,67.89
2019-06-20T17:38:49.153Z,69.51
2019-06-20T17:41:19.278Z,70.02
2019-06-20T17:43:49.430Z,70.54
2019-06-20T17:46:19.556Z,71.44
2019-06-20T17:48:49.820Z,71.96
2019-06-20T17:51:19.933Z,72.56
2019-06-20T17:53:50.105Z,71.88
2019-06-20T17:56:20.269Z,71.87
2019-06-20T17:58:50.402Z,71.70
2019-06-20T18:01:20.537Z,72.07
2019-06-20T18:03:50.659Z,71.43
2019-06-20T18:06:20.790Z,70.88
2019-06-20T18:08:50.934Z,70.28
2019-06-20T18:11:21.070Z,70.21
2019-06-20T18:13:51.185Z,69.67
2019-06-20T18:16:25.389Z,69.51
2019-06-20T18:18:53.136Z,68.84
2019-06-20T18:21:23.283Z,68.99
2019-06-20T18:23:53.412Z,69.23
2019-06-20T18:26:23.556Z,69.14
2019-06-20T18:28:53.675Z,69.15
2019-06-20T18:31:23.821Z,69.32
2019-06-20T18:33:53.961Z,69.21
2019-06-20T18:36:24.105Z,69.32
2019-06-20T18:38:54.222Z,69.24
2019-06-20T18:41:24.379Z,69.16
2019-06-20T18:43:54.497Z,68.99
2019-06-20T18:46:24.636Z,69.48
2019-06-20T18:48:54.761Z,69.82
2019-06-20T18:51:24.991Z,69.47
2019-06-20T18:53:55.156Z,69.39
2019-06-20T18:56:25.320Z,68.97
2019-06-20T18:58:55.605Z,68.86
2019-06-20T19:01:25.755Z,69.11
2019-06-20T19:03:55.910Z,69.09
2019-06-20T19:06:35.542Z,68.89
2019-06-20T19:08:58.006Z,68.87
2019-06-20T19:11:28.147Z,68.88
2019-06-20T19:13:58.248Z,68.96
2019-06-20T19:16:28.377Z,68.82
2019-06-20T19:18:58.528Z,68.36
2019-06-20T19:21:28.687Z,68.43
2019-06-20T19:23:58.838Z,68.14
2019-06-20T19:26:28.958Z,68.37
2019-06-20T19:28:59.091Z,68.54
2019-06-20T19:31:29.227Z,68.46
2019-06-20T19:33:59.365Z,69.37
2019-06-20T19:36:29.505Z,68.47
2019-06-20T19:38:59.649Z,68.93
2019-06-20T19:41:29.909Z,69.39
2019-06-20T19:44:00.052Z,68.70
2019-06-20T19:46:30.242Z,68.13
2019-06-20T19:49:00.354Z,68.61
2019-06-20T19:51:30.709Z,68.85
2019-06-20T19:54:00.845Z,68.99
2019-06-20T19:56:31.023Z,68.87
2019-06-20T19:59:01.256Z,68.64
2019-06-20T20:01:31.400Z,68.75
2019-06-20T20:04:01.543Z,68.28
2019-06-20T20:06:31.687Z,68.21
2019-06-20T20:09:01.812Z,67.41
2019-06-20T20:11:33.570Z,68.03
2019-06-20T20:14:03.734Z,67.63
2019-06-20T20:16:33.868Z,66.94
2019-06-20T20:19:04.024Z,66.79
2019-06-20T20:21:34.288Z,67.01
2019-06-20T20:24:04.870Z,67.13
2019-06-20T20:26:36.055Z,67.11
2019-06-20T20:29:06.197Z,66.75
2019-06-20T20:31:36.348Z,66.38
2019-06-20T20:34:06.488Z,66.01
2019-06-20T20:36:36.827Z,66.18
2019-06-20T20:39:07.742Z,65.92
2019-06-20T20:41:37.997Z,65.87
2019-06-20T20:44:08.122Z,65.75
2019-06-20T20:49:07.917Z,65.60
2019-06-20T20:51:38.117Z,65.57
2019-06-20T20:54:08.262Z,65.64
2019-06-20T20:56:38.419Z,65.74
2019-06-20T20:59:08.542Z,65.98
2019-06-20T21:01:38.704Z,66.10
2019-06-20T21:04:08.811Z,66.20
2019-06-20T21:06:38.990Z,66.43
2019-06-20T21:09:09.459Z,66.49
2019-06-20T21:11:40.658Z,66.66
2019-06-20T21:14:10.797Z,66.71
2019-06-20T21:16:40.955Z,66.80
2019-06-20T21:19:11.188Z,67.08
2019-06-20T21:21:41.350Z,66.78
2019-06-20T21:24:11.474Z,66.85
2019-06-20T21:26:49.318Z,67.02
2019-06-20T21:29:13.420Z,66.98
2019-06-20T21:31:43.546Z,66.98
2019-06-20T21:34:13.652Z,67.01
2019-06-20T21:36:43.851Z,67.25
2019-06-20T21:39:13.942Z,67.78
2019-06-20T21:41:44.062Z,68.19
2019-06-20T21:44:14.192Z,68.08
2019-06-20T21:46:45.068Z,67.95
2019-06-20T21:49:15.210Z,67.41
2019-06-20T21:51:45.358Z,67.49
2019-06-20T21:54:15.483Z,67.60
2019-06-20T21:56:45.628Z,67.82
2019-06-20T21:59:15.762Z,68.48
2019-06-20T22:01:48.353Z,68.62
2019-06-20T22:04:17.728Z,68.79
2019-06-20T22:06:47.866Z,68.90
2019-06-20T22:09:17.979Z,69.15
2019-06-20T22:11:48.379Z,69.09
2019-06-20T22:14:18.500Z,68.94
2019-06-20T22:16:48.625Z,68.69
2019-06-20T22:19:18.742Z,68.44
2019-06-20T22:21:48.896Z,68.53
2019-06-20T22:24:19.048Z,68.83
2019-06-20T22:26:49.186Z,69.04
2019-06-20T22:29:20.384Z,68.97
2019-06-20T22:31:50.544Z,69.29
2019-06-20T22:34:20.680Z,69.40
2019-06-20T22:36:50.800Z,69.28
2019-06-20T22:39:20.933Z,68.85
2019-06-20T22:41:51.060Z,68.51
2019-06-20T22:44:21.176Z,68.38
2019-06-20T22:46:51.319Z,68.13
2019-06-20T22:49:21.493Z,68.33
2019-06-20T22:51:51.637Z,68.90
2019-06-20T22:54:21.831Z,69.11
2019-06-20T22:56:52.015Z,69.21
2019-06-20T22:59:22.125Z,68.93
2019-06-20T23:01:52.274Z,69.08
2019-06-20T23:04:22.392Z,68.92
2019-06-20T23:06:56.412Z,68.88
2019-06-20T23:09:27.295Z,68.83
2019-06-20T23:11:56.233Z,68.61
2019-06-20T23:14:26.441Z,68.50
2019-06-20T23:16:56.537Z,68.27
2019-06-20T23:19:26.655Z,68.30
2019-06-20T23:21:57.903Z,68.16
2019-06-20T23:24:28.021Z,68.38
2019-06-20T23:26:58.160Z,68.73
2019-06-20T23:29:28.293Z,68.73
2019-06-20T23:31:58.424Z,68.87
2019-06-20T23:34:28.829Z,68.95
2019-06-20T23:37:12.121Z,69.11
2019-06-20T23:39:30.788Z,69.37
2019-06-20T23:42:00.952Z,69.44
2019-06-20T23:44:31.072Z,69.93
2019-06-20T23:47:01.204Z,70.35
2019-06-20T23:49:31.333Z,69.59
2019-06-20T23:52:06.517Z,69.33
2019-06-20T23:54:36.639Z,68.59
2019-06-20T23:57:06.855Z,68.71
2019-06-20T23:59:37.037Z,68.78
